Terminal Aerodrome Forecast
Issued by NWS St Louis, MO

Home | Current Version | Previous Version | Graphics & Text | Print | Product List | Glossary On
Versions: 1 2 3 4 5 6 7 8 9 10 11 12 13 14 15 16 17 18 19 20 21 22 23 24 25 26 27 28 29 30
406
FTUS43 KLSX 270558 AAA
TAFSTL
TAF AMD
KSTL 270558Z 2706/2812 06010KT P6SM VCTS BKN040CB OVC080
      TEMPO 2706/2708 VRB20G40KT 1SM +TSRAGS BKN015CB
     FM270900 VRB04KT P6SM SCT100 BKN250
     FM271500 24005KT P6SM SCT040 BKN250
     FM280100 VRB04KT P6SM SCT250=

USA.gov is the U.S. government's official web portal to all federal, state and local government web resources and services.